Terminal Aerodrome Forecast
Issued by NWS Omaha/Valley, NE

Home | Current Version | Previous Version | Text Only | Print | Product List | Glossary On
Versions: 1 2 3 4 5 6 7 8 9 10 11 12 13 14 15 16 17 18 19 20 21 22 23 24 25 26 27 28 29 30 31 32 33 34 35 36 37 38 39 40 41
000
FTUS43 KOAX 040140 AAA
TAFOMA
TAF AMD
KOMA 040140Z 0402/0424 15013KT P6SM SCT030 BKN080
      TEMPO 0402/0405 VRB15G25KT 4SM TSRA BKN030CB
     FM040500 36012KT P6SM BKN050
      TEMPO 0405/0407 3SM TSRA BKN025CB
     FM041100 35012G21KT P6SM OVC100
     FM041600 04010KT P6SM OVC100 PROB30 0418/0422 P6SM TSRA
      BKN040CB=

USA.gov is the U.S. government's official web portal to all federal, state and local government web resources and services.